zondag 31 mei 2020 | Home | Bestenlijsten | Bestenlijsten NL | Calculators | Nieuws | Records | Uitslagen | VZA Ranglijsten | Weer |
 
Recent nieuws meer nieuws
28-05: Is snelheid een relatief begrip? Maar dan op herhaling
19-05: Snelheid een relatief begrip?
06-05: Mag huidig niveau hardlopen zomaar vergeleken worden met dat van de jaren 70?
28-04: Ook na 1 juni Run your own race
24-04: Zeeuws record 15 km van John Vermeule meest kansrijk om ooit te worden verbroken
21-04: Kunnen we na 1 juni stoppen met Run your own race?
 
Zoek tenminste met 3 tekens van wedstrijd, datum, plaats of atleet

Kreekloop

Terneuzen, woensdag 26 augustus 2015 - Organisatie: Scheldesport
9.2 km
PltsNaam
Tijdkm/umin/kmm/secgap
1  Mark VerhageZaamslag33.22minMse   16.543  3:384.60-
2  Erwin van den BroekeAxel33.52minMse   16.299  3:414.53+0:30
3  Pieter PladdetTerneuzen34.10minMse   16.156  3:434.49+0:48
4  Erik GoossenTerneuzen35.06minM40   15.726  3:494.37+1:44
5  Edwin de la RuelleKoewacht35.25minM45   15.586  3:514.33+2:03
6  Sander van DoornTerneuzen35.30minMse   15.549  3:524.32+2:08
7  Endy SlockAxel35.46minM40   15.433  3:534.29+2:24
8  Adriaan WielesTerneuzen36.26minM45   15.151  3:584.21+3:04
9  Gert-Jan KolijnTerneuzen38.49minMse   14.221  4:133.95+5:27
10  Niek WielandAxel39.28minM40   13.986  4:173.89+6:06
11  Frank BoerebachHoek39.56minMse   13.823  4:203.84+6:34
12  Sjakkie van den BroekeHoek40.53minM45   13.502  4:273.75+7:31
13  Leon van BavinchovenTerneuzen41.17minMse   13.371  4:293.71+7:55
14  Thomas WulffraatTerneuzen41.19minMse   13.360  4:293.71+7:57
15  Jaap van der VeenTerneuzen42.14minM45   13.070  4:353.63+8:52
16  Erik BollemanAxel42.46minM45   12.907  4:393.59+9:24
17  Jacques ZamanTerneuzen43.03minM50   12.822  4:413.56+9:41
18  Frans VerwilligenHulst43.12minMse   12.778  4:423.55+9:50
19  Walther MurreZaamslag43.19minM45   12.743  4:433.54+9:57
20  Jean-Pierre NoletAxel43.22minMse   12.729  4:433.54+10:00
21  Stefan van DammeTerneuzen44.14minMse   12.479  4:483.47+10:52
22  Huibert HamelinkTerneuzen44.39minMse   12.363  4:513.43+11:17
23  Joram TerreehorstTerneuzen45.11minMse   12.217  4:553.39+11:49
24  Lauran Van den DriesKloosterzande45.15minMse   12.199  4:553.39+11:53
25  Nadia BleyenbergNieuw-Namen45.41minVse   12.083  4:583.36+12:19
26  Dirk RoodzantAxel48.31minMse   11.378  5:163.16+15:09
27  Marion GoossenTerneuzen48.54minV40   11.288  5:193.14+15:32
28  Willy MenuWalsoorden51.06minMse   10.802  5:333.00+17:44
29  Rudy van de VeldeWachtebeke51.23minMse   10.743  5:352.98+18:01
30  Philip De VroeSleidinge52.11minMse   10.578  5:402.94+18:49
31  Marcel de CockVogelwaarde52.16minMse   10.561  5:412.93+18:54
32  Leo HoeksmaKoewacht54.18minM55   10.166  5:542.82+20:56
33  Marieke van HeckeTerneuzen54.28minVse   10.135  5:552.82+21:06
34  Monique AdriaanseTerneuzen54.28minV45   10.135  5:552.82+21:06
35  Jan de JongeDriewegen55.01minMse   10.033  5:592.79+21:39
36  Jack FolkersmaTerneuzen56.02minMse   9.851  6:052.74+22:40
37  Andre PietersTerneuzen57.09minMse   9.659  6:132.68+23:47
38  Paul HuitemaTerneuzen1.00.06minMse   9.185  6:322.55+26:44
39  Jacky DoomsTerneuzen1.00.06minMse   9.185  6:322.55+26:44
40  Ingrid JonesTerneuzen1.02.08minVse   8.884  6:452.47+28:46
41  Annemarie MurreTerneuzen1.02.08minVse   8.884  6:452.47+28:46
Mannen: 35 (85.37%) => M40=3 - M45=6 - M50=1 - M55=1 - Mse=24
Vrouwen: 6 (14.63%) => V40=1 - V45=1 - Vse=4

Overzicht Top3, winnares en aantal deelnemers van aanwezige edities

JaarWinnaarTijd2eTijd 3eTijdWinnaresTijd#

9.6 km

2019Mark Verhage33:07Liam de Mey34:01Sander van Doorn36:10Natasja de Booij44:0041
2018Mark Verhage33:43Erwin van den Broeke36:30Jeroen van den Broeke37:15Melissa ten Kate44:5347
2017Mark Verhage33:22Erwin van den Broeke35:20Sander van Doorn35:54Astrid Verhage45:4769
2016Mark Verhage35:32Erik Goossen37:06Frank van den Branden39:31Inge de Booij49:3347

9.2 km

2015Mark Verhage33:22Erwin van den Broeke33:52Pieter Pladdet34:10Nadia Bleyenberg45:4141
2014Mark Verhage32:16Erwin van den Broeke32:32Erik Goossen32:34Myrthe Faro41:3647
5.2 km
PltsNaam
Tijdkm/umin/kmm/secgap
1  Sander d'HontKuitaart17.19minMse   18.017  3:205.00-
2  Gunter D'HondtRonse17.48minMse   17.528  3:254.87+0:29
3  Dennis FlorussenTerneuzen19.44minM40   15.811  3:484.39+2:25
4  Albert PlatteeuwTerneuzen20.58minM50   14.881  4:024.13+3:39
5  Ben van VlietTerneuzen21.31minMse   14.500  4:084.03+4:12
6  Leo BrackeAxel21.58minMse   14.203  4:133.95+4:39
7  Douwe WortmanAxel22.09minMse   14.086  4:163.91+4:50
8  Martin de JaegerTerneuzen23.05minMse   13.516  4:263.75+5:46
9  Steven SlockAxel23.30minMse   13.277  4:313.69+6:11
10  Bennie BouterseTerneuzen24.00minMse   13.000  4:373.61+6:41
11  Pascal RikersSas van Gent24.09minMse   12.919  4:393.59+6:50
12  Fiona ReijersTerneuzen24.21minVse   12.813  4:413.56+7:02
13  Stephanie van der VeenTerneuzen26.18minVse   11.863  5:033.30+8:59
14  Carla ZegersKoewacht26.55minV45   11.591  5:113.22+9:36
15  Lucia AsensTerneuzen27.29minVse   11.352  5:173.15+10:10
16  Daan DielemanZaamslag27.42minMse   11.264  5:203.13+10:23
17  Irenee GoethalsOostakker28.37minMse   10.903  5:303.03+11:18
18  Samantha van DoornTerneuzen28.52minVse   10.808  5:333.00+11:33
19  Rudie de CockStekene29.26minMse   10.600  5:402.94+12:07
20  Arsene Van LaekenAssenede29.49minMse   10.464  5:442.91+12:30
21  Josep GuimerdTerneuzen29.49minMse   10.464  5:442.91+12:30
22  Caroline LiebensPhilippine32.51minVse   9.498  6:192.64+15:32
23  Leentje KellensStekene34.05minVse   9.154  6:332.54+16:46
Mannen: 16 (69.57%) => M40=1 - M50=1 - Mse=14
Vrouwen: 7 (30.43%) => V45=1 - Vse=6

Snelheid en tempo zijn berekend op de vermelde afstand. Bij een onjuiste afstand wijken deze uiteraard af!

Fouten melden via info@atletiekzeeland.nl Categorie fout? Mail dan geboortedatum. (geldt alleen voor Zeeuwen)

De server had 0.111 seconden nodig om deze lijst met 64 prestaties samen te stellen.

Terug naar boven


 
Atletiek Zeeland © 2020